Time;durP1;ratioP1;P1;durP2;ratioP2;P2;SDS_P1;SDS_P2;PMS_P1;PMS_P2;Temp;Humidity;BMP_temperature;BMP_pressure;BME280_temperature;BME280_humidity;BME280_pressure;Samples;Min_cycle;Max_cycle;Signal;HPM_P1;HPM_P2
2021/03/11 00:02:23;;;;;;;17.60;12.43;;;8.20;99.90;;;;;;4864219;29;20328;-79
2021/03/11 00:04:49;;;;;;;17.77;11.80;;;8.20;99.90;;;;;;4846426;29;20218;-79
2021/03/11 00:07:16;;;;;;;16.90;11.48;;;8.20;99.90;;;;;;4861225;29;20221;-79
2021/03/11 00:09:42;;;;;;;16.55;11.55;;;8.20;99.90;;;;;;4857566;29;20199;-79
2021/03/11 00:12:09;;;;;;;15.70;11.70;;;8.20;99.90;;;;;;4853098;29;20214;-79
2021/03/11 00:14:36;;;;;;;15.63;10.95;;;8.20;99.90;;;;;;4871016;29;20200;-79
2021/03/11 00:17:04;;;;;;;16.35;12.30;;;8.20;99.90;;;;;;4857267;29;20310;-79
2021/03/11 00:19:31;;;;;;;16.40;12.05;;;8.20;99.90;;;;;;4867830;29;20198;-79
2021/03/11 00:21:57;;;;;;;15.02;11.95;;;8.20;99.90;;;;;;4860546;29;20709;-78
2021/03/11 00:24:24;;;;;;;13.57;11.13;;;8.20;99.90;;;;;;4862439;29;20238;-79
2021/03/11 00:26:51;;;;;;;15.88;10.48;;;8.20;99.90;;;;;;4861893;29;20235;-78
2021/03/11 00:29:17;;;;;;;14.32;9.05;;;8.30;99.90;;;;;;4861393;29;20226;-78
2021/03/11 00:31:44;;;;;;;12.07;9.20;;;8.20;99.90;;;;;;4856140;29;20600;-78
2021/03/11 00:34:11;;;;;;;12.60;9.90;;;8.20;99.90;;;;;;4877538;29;20221;-79
2021/03/11 00:36:38;;;;;;;12.43;9.23;;;8.20;99.90;;;;;;4878534;29;20229;-78
2021/03/11 00:39:06;;;;;;;15.20;8.57;;;8.20;99.90;;;;;;4878238;29;20193;-78
2021/03/11 00:41:34;;;;;;;10.82;8.00;;;8.20;99.90;;;;;;4854041;29;20242;-78
2021/03/11 00:44:00;;;;;;;12.35;9.23;;;8.20;99.90;;;;;;4864752;29;20215;-78
2021/03/11 00:46:27;;;;;;;10.23;6.97;;;8.20;99.90;;;;;;4867331;29;20226;-78
2021/03/11 00:48:53;;;;;;;9.05;6.43;;;8.20;99.90;;;;;;4871416;29;20456;-78
2021/03/11 00:51:20;;;;;;;7.35;5.70;;;8.20;99.90;;;;;;4878735;29;20193;-78
2021/03/11 00:53:54;;;;;;;8.95;6.72;;;8.20;99.90;;;;;;4859924;29;20214;-78
2021/03/11 00:56:21;;;;;;;10.02;7.35;;;8.20;99.90;;;;;;4863915;29;20187;-79
2021/03/11 00:58:47;;;;;;;9.05;6.13;;;8.20;99.90;;;;;;4865981;29;20271;-78
2021/03/11 01:01:13;;;;;;;8.30;5.70;;;8.20;99.90;;;;;;4859701;29;20210;-78
2021/03/11 01:03:48;;;;;;;7.68;5.18;;;8.10;99.90;;;;;;4877641;29;20218;-78
2021/03/11 01:06:15;;;;;;;7.38;5.38;;;8.20;99.90;;;;;;4877806;29;20737;-79
2021/03/11 01:08:42;;;;;;;7.28;4.90;;;8.20;99.90;;;;;;4861422;29;20186;-78
2021/03/11 01:11:09;;;;;;;4.05;3.60;;;8.20;99.90;;;;;;4865248;29;20199;-78
2021/03/11 01:13:35;;;;;;;5.13;4.00;;;8.20;99.90;;;;;;4865106;29;20194;-79
2021/03/11 01:16:02;;;;;;;5.32;4.53;;;8.20;99.90;;;;;;4862051;29;20194;-78
2021/03/11 01:18:28;;;;;;;6.35;4.10;;;8.20;99.90;;;;;;4875803;29;20218;-78
2021/03/11 01:20:55;;;;;;;7.43;4.43;;;8.20;99.90;;;;;;4878695;29;20641;-78
2021/03/11 01:23:21;;;;;;;4.93;3.70;;;8.20;99.90;;;;;;4863272;29;20603;-78
2021/03/11 01:25:48;;;;;;;3.78;3.30;;;8.20;99.90;;;;;;4866200;29;20230;-79
2021/03/11 01:28:14;;;;;;;5.00;3.55;;;8.20;99.90;;;;;;4876298;29;20283;-79
2021/03/11 01:30:40;;;;;;;4.45;3.40;;;8.30;99.90;;;;;;4861965;29;20286;-78
2021/03/11 01:33:07;;;;;;;5.00;3.97;;;8.30;99.90;;;;;;4867465;29;20226;-78
2021/03/11 01:35:34;;;;;;;5.13;3.90;;;8.30;99.90;;;;;;4849631;29;20322;-78
2021/03/11 01:38:00;;;;;;;8.07;4.15;;;8.20;99.90;;;;;;4858261;29;20231;-78
2021/03/11 01:40:26;;;;;;;4.70;3.70;;;8.20;99.90;;;;;;4866449;29;20302;-78
2021/03/11 01:42:53;;;;;;;5.95;4.10;;;8.20;99.90;;;;;;4859247;29;20223;-78
2021/03/11 01:45:21;;;;;;;5.45;4.72;;;8.20;99.90;;;;;;4870451;29;20305;-78
2021/03/11 01:47:47;;;;;;;4.03;3.55;;;8.20;99.90;;;;;;4867867;29;20226;-78
2021/03/11 01:50:14;;;;;;;3.08;2.72;;;8.30;99.90;;;;;;4877746;29;20654;-78
2021/03/11 01:52:42;;;;;;;5.68;4.22;;;8.30;99.90;;;;;;4876228;29;20238;-78
2021/03/11 01:55:09;;;;;;;5.72;3.67;;;8.30;99.90;;;;;;4873909;29;20268;-78
2021/03/11 01:57:36;;;;;;;5.65;3.40;;;8.30;99.90;;;;;;4860966;29;20249;-78
2021/03/11 02:00:11;;;;;;;4.25;3.85;;;8.20;99.90;;;;;;4869365;29;20639;-78
2021/03/11 02:02:43;;;;;;;4.70;3.60;;;8.30;99.90;;;;;;4861746;29;20234;-78
2021/03/11 02:05:13;;;;;;;4.43;3.90;;;8.30;99.90;;;;;;4868579;29;20211;-78
2021/03/11 02:07:40;;;;;;;4.82;3.75;;;8.20;99.90;;;;;;4861271;29;20245;-78
2021/03/11 02:10:09;;;;;;;3.53;2.90;;;8.20;99.90;;;;;;4863680;29;20191;-78
2021/03/11 02:12:53;;;;;;;4.72;3.88;;;8.20;99.90;;;;;;4867711;29;20719;-78
2021/03/11 02:15:44;;;;;;;6.50;4.35;;;8.20;99.90;;;;;;4875324;29;20206;-78
2021/03/11 02:18:38;;;;;;;3.38;2.80;;;8.20;99.90;;;;;;4868990;29;20708;-78
2021/03/11 02:21:25;;;;;;;3.60;3.30;;;8.20;99.90;;;;;;4870401;29;20211;-78
2021/03/11 02:24:05;;;;;;;4.65;3.40;;;8.20;99.90;;;;;;4873108;29;20221;-78
2021/03/11 02:26:53;;;;;;;4.60;2.55;;;8.20;99.90;;;;;;4864998;29;20245;-78
2021/03/11 02:29:32;;;;;;;5.85;4.03;;;8.20;99.90;;;;;;4844739;29;20202;-78
2021/03/11 02:32:01;;;;;;;4.22;3.40;;;8.20;99.90;;;;;;4864796;29;20215;-78
2021/03/11 02:34:38;;;;;;;7.32;3.42;;;8.20;99.90;;;;;;4863864;29;20225;-78
2021/03/11 02:37:11;;;;;;;3.95;3.33;;;8.20;99.90;;;;;;4863861;29;20732;-78
2021/03/11 02:39:43;;;;;;;4.03;3.20;;;8.30;99.90;;;;;;4876243;29;20286;-78
2021/03/11 02:42:11;;;;;;;4.38;3.50;;;8.30;99.90;;;;;;4860151;29;20307;-78
2021/03/11 02:44:39;;;;;;;3.00;2.60;;;8.20;99.90;;;;;;4876362;29;20617;-78
2021/03/11 02:47:07;;;;;;;4.55;3.45;;;8.30;99.90;;;;;;4864957;29;20237;-78
2021/03/11 02:49:35;;;;;;;3.10;2.40;;;8.20;99.90;;;;;;4874035;29;20260;-78
2021/03/11 02:52:02;;;;;;;4.45;3.13;;;8.30;99.90;;;;;;4859241;29;20291;-78
2021/03/11 02:54:29;;;;;;;3.90;3.10;;;8.30;99.90;;;;;;4838951;29;20303;-78
2021/03/11 02:57:04;;;;;;;3.67;2.65;;;8.30;99.90;;;;;;4874018;29;20237;-78
2021/03/11 02:59:32;;;;;;;3.72;3.00;;;8.30;99.90;;;;;;4876483;29;20262;-78
2021/03/11 03:02:03;;;;;;;3.65;3.10;;;8.30;99.90;;;;;;4861202;29;20235;-78
2021/03/11 03:04:29;;;;;;;4.53;3.28;;;8.30;99.90;;;;;;4842973;29;20633;-78
2021/03/11 03:06:57;;;;;;;4.18;2.92;;;8.30;99.90;;;;;;4843523;29;20303;-78
2021/03/11 03:09:25;;;;;;;4.55;3.28;;;8.40;99.90;;;;;;4862420;29;20595;-78
2021/03/11 03:11:54;;;;;;;4.57;2.60;;;8.40;99.90;;;;;;4859922;29;20279;-78
2021/03/11 03:14:21;;;;;;;5.15;3.70;;;8.40;99.90;;;;;;4878951;29;20232;-78
2021/03/11 03:16:48;;;;;;;4.03;3.63;;;8.30;99.90;;;;;;4870276;29;20241;-78
2021/03/11 03:19:16;;;;;;;3.80;3.40;;;8.30;99.90;;;;;;4843059;29;20196;-78
2021/03/11 03:21:44;;;;;;;4.00;3.60;;;8.30;99.90;;;;;;4842139;29;20234;-78
2021/03/11 03:24:12;;;;;;;5.45;3.40;;;8.40;99.90;;;;;;4843440;29;20222;-78
2021/03/11 03:26:39;;;;;;;5.68;3.97;;;8.40;99.90;;;;;;4838264;29;20221;-78
2021/03/11 03:29:06;;;;;;;8.27;4.38;;;8.40;99.90;;;;;;4864913;29;20203;-78
2021/03/11 03:31:33;;;;;;;5.68;3.90;;;8.40;99.90;;;;;;4860584;29;20601;-78
2021/03/11 03:34:00;;;;;;;5.22;4.25;;;8.50;99.90;;;;;;4861643;29;20211;-78
2021/03/11 03:36:27;;;;;;;6.63;4.20;;;8.50;99.90;;;;;;4870361;29;20232;-78
2021/03/11 03:38:54;;;;;;;5.10;4.10;;;8.40;99.90;;;;;;4880379;29;20556;-78
2021/03/11 03:41:27;;;;;;;4.65;4.18;;;8.40;99.90;;;;;;4875191;29;20222;-78
2021/03/11 03:43:54;;;;;;;5.05;3.97;;;8.40;99.90;;;;;;4877596;29;20712;-78
2021/03/11 03:46:24;;;;;;;4.85;3.65;;;8.40;99.90;;;;;;4872375;29;20200;-78
2021/03/11 03:48:52;;;;;;;4.43;3.80;;;8.30;99.90;;;;;;4862062;29;20247;-78
2021/03/11 03:51:23;;;;;;;5.88;3.92;;;8.30;99.90;;;;;;4861812;29;20734;-78
2021/03/11 03:53:53;;;;;;;4.57;4.15;;;8.30;99.90;;;;;;4874268;29;20219;-78
2021/03/11 03:56:27;;;;;;;3.20;2.90;;;8.30;99.90;;;;;;4876135;29;20195;-78
2021/03/11 03:58:58;;;;;;;3.78;3.33;;;8.30;99.90;;;;;;4862089;29;20290;-78
2021/03/11 04:01:30;;;;;;;3.72;2.83;;;8.30;99.90;;;;;;4856236;29;20310;-78
2021/03/11 04:04:00;;;;;;;3.78;3.03;;;8.30;99.90;;;;;;4852831;29;20215;-79
2021/03/11 04:06:27;;;;;;;3.38;2.95;;;8.30;99.90;;;;;;4861091;29;20650;-78
2021/03/11 04:08:55;;;;;;;4.30;3.20;;;8.30;99.90;;;;;;4861312;29;20203;-78
2021/03/11 04:11:21;;;;;;;3.35;2.95;;;8.30;99.90;;;;;;4873197;29;20194;-78
2021/03/11 04:13:50;;;;;;;4.78;3.20;;;8.30;99.90;;;;;;4879741;29;20265;-78
2021/03/11 04:16:17;;;;;;;3.00;2.40;;;8.40;99.90;;;;;;4867804;29;20188;-78
2021/03/11 04:18:45;;;;;;;3.45;2.70;;;8.40;99.90;;;;;;4867595;29;20270;-78
2021/03/11 04:21:13;;;;;;;3.28;2.75;;;8.50;99.90;;;;;;4860322;29;20203;-78
2021/03/11 04:23:40;;;;;;;5.03;2.80;;;8.60;99.90;;;;;;4844659;29;20561;-78
2021/03/11 04:26:10;;;;;;;3.00;2.35;;;8.60;99.90;;;;;;4860492;29;20203;-78
2021/03/11 04:28:37;;;;;;;3.22;2.70;;;8.60;99.90;;;;;;4861856;29;20562;-78
2021/03/11 04:31:04;;;;;;;4.70;2.97;;;8.60;99.90;;;;;;4862087;29;20599;-78
2021/03/11 04:33:30;;;;;;;3.45;2.58;;;8.70;99.90;;;;;;4877910;29;20234;-78
2021/03/11 04:35:57;;;;;;;3.85;2.40;;;8.70;99.90;;;;;;4869858;29;20590;-78
2021/03/11 04:38:24;;;;;;;3.65;2.40;;;8.60;99.90;;;;;;4875466;29;20294;-78
2021/03/11 04:40:52;;;;;;;3.65;2.95;;;8.60;99.90;;;;;;4856842;29;20219;-78
2021/03/11 04:43:20;;;;;;;4.15;2.42;;;8.70;99.90;;;;;;4878650;29;20215;-78
2021/03/11 04:45:47;;;;;;;5.32;3.55;;;8.70;99.90;;;;;;4869091;29;20214;-79
2021/03/11 04:48:15;;;;;;;3.47;2.70;;;8.80;99.90;;;;;;4843835;29;20223;-78
2021/03/11 04:50:43;;;;;;;3.20;2.65;;;8.80;99.90;;;;;;4888816;23;20194;-74
2021/03/11 04:53:10;;;;;;;3.65;3.15;;;8.90;99.90;;;;;;4871811;29;20273;-75
2021/03/11 04:55:37;;;;;;;3.85;2.80;;;8.90;99.90;;;;;;4845774;29;20211;-74
2021/03/11 04:58:04;;;;;;;3.63;2.92;;;9.00;99.90;;;;;;4859386;29;20219;-73
2021/03/11 05:00:37;;;;;;;5.43;3.50;;;8.90;99.90;;;;;;4842413;29;20291;-76
2021/03/11 05:03:10;;;;;;;4.25;3.60;;;9.00;99.90;;;;;;4858143;29;20225;-75
2021/03/11 05:05:38;;;;;;;4.00;3.40;;;8.90;99.90;;;;;;4858741;29;20634;-73
2021/03/11 05:08:05;;;;;;;4.10;3.30;;;8.90;99.90;;;;;;4859380;29;20221;-75
2021/03/11 05:10:32;;;;;;;4.75;3.63;;;9.00;99.90;;;;;;4859288;29;20195;-77
2021/03/11 05:12:59;;;;;;;4.18;3.47;;;9.00;99.90;;;;;;4858304;29;20234;-74
2021/03/11 05:15:26;;;;;;;4.97;3.70;;;9.10;99.90;;;;;;4858362;29;20222;-75
2021/03/11 05:17:52;;;;;;;4.60;3.75;;;9.20;99.90;;;;;;4839485;29;20224;-75
2021/03/11 05:20:20;;;;;;;5.43;4.10;;;9.20;99.90;;;;;;4834115;29;20200;-74
2021/03/11 05:22:47;;;;;;;4.57;3.03;;;9.20;99.90;;;;;;4859223;29;20262;-75
2021/03/11 05:25:14;;;;;;;3.65;3.03;;;9.30;99.90;;;;;;4858897;29;20585;-76
2021/03/11 05:27:40;;;;;;;3.72;2.90;;;9.30;99.90;;;;;;4859280;29;20306;-74
2021/03/11 05:30:10;;;;;;;3.20;2.90;;;9.30;99.90;;;;;;4859339;29;20261;-75
2021/03/11 05:32:37;;;;;;;3.33;3.00;;;9.30;99.90;;;;;;4858520;29;20227;-76
2021/03/11 05:35:05;;;;;;;3.40;3.10;;;9.40;99.90;;;;;;4859602;29;20211;-76
2021/03/11 05:37:32;;;;;;;3.28;2.55;;;9.50;99.90;;;;;;4842483;29;20713;-74
2021/03/11 05:39:58;;;;;;;3.40;3.13;;;9.50;99.90;;;;;;4853508;29;20663;-73
2021/03/11 05:42:25;;;;;;;5.13;3.15;;;9.50;99.90;;;;;;4854399;29;20239;-74
2021/03/11 05:44:53;;;;;;;4.05;3.10;;;9.60;99.90;;;;;;4858577;29;20242;-77
2021/03/11 05:47:21;;;;;;;4.25;2.80;;;9.70;99.90;;;;;;4858760;29;20764;-74
2021/03/11 05:49:49;;;;;;;4.20;3.80;;;9.70;99.90;;;;;;4859552;29;20483;-77
2021/03/11 05:52:15;;;;;;;3.55;2.90;;;9.70;99.90;;;;;;4857937;29;20311;-76
2021/03/11 05:54:42;;;;;;;4.13;3.50;;;9.70;99.90;;;;;;4858056;29;20249;-75
2021/03/11 05:57:09;;;;;;;3.58;3.28;;;9.70;99.90;;;;;;4843269;29;20223;-77
2021/03/11 05:59:35;;;;;;;4.88;3.70;;;9.60;99.90;;;;;;4834596;29;20565;-75
2021/03/11 06:02:06;;;;;;;4.13;3.22;;;9.60;99.90;;;;;;4858164;29;20300;-74
2021/03/11 06:04:36;;;;;;;3.70;3.25;;;9.60;99.90;;;;;;4826900;29;20274;-74
2021/03/11 06:07:05;;;;;;;3.22;2.92;;;9.70;99.90;;;;;;4857577;29;20330;-76
2021/03/11 06:09:33;;;;;;;5.25;2.63;;;9.60;99.90;;;;;;4858746;29;20282;-75
2021/03/11 06:12:03;;;;;;;4.65;3.70;;;9.60;99.90;;;;;;4842184;29;20223;-74
2021/03/11 06:14:36;;;;;;;4.03;2.85;;;9.60;99.90;;;;;;4859401;29;20211;-75
2021/03/11 06:17:09;;;;;;;3.60;2.65;;;9.70;99.90;;;;;;4857191;29;20723;-74
2021/03/11 06:19:36;;;;;;;2.83;2.38;;;9.70;99.90;;;;;;4858942;29;20632;-75
2021/03/11 06:22:03;;;;;;;3.75;2.33;;;9.70;99.90;;;;;;4858409;29;20604;-77
2021/03/11 06:24:29;;;;;;;2.60;2.25;;;9.70;99.90;;;;;;4858376;29;20223;-77
2021/03/11 06:26:56;;;;;;;3.17;2.40;;;9.70;99.90;;;;;;4841491;29;20677;-75
2021/03/11 06:29:41;;;;;;;2.55;2.05;;;9.80;99.90;;;;;;4858128;29;20223;-73
2021/03/11 06:32:08;;;;;;;3.58;2.22;;;9.80;99.90;;;;;;4846177;29;20737;-75
2021/03/11 06:34:42;;;;;;;2.65;1.95;;;9.80;99.90;;;;;;4852136;29;20207;-74
2021/03/11 06:37:13;;;;;;;2.17;1.70;;;9.80;99.90;;;;;;4859739;29;20661;-76
2021/03/11 06:39:42;;;;;;;2.95;2.30;;;9.90;99.90;;;;;;4860869;29;20233;-76
2021/03/11 06:42:09;;;;;;;2.70;2.30;;;9.90;99.90;;;;;;4843008;29;20315;-75
2021/03/11 06:44:45;;;;;;;3.40;2.20;;;9.80;99.90;;;;;;4830103;29;20231;-76
2021/03/11 06:47:14;;;;;;;2.15;1.92;;;9.90;99.90;;;;;;4850236;29;20677;-75
2021/03/11 06:50:03;;;;;;;2.00;1.88;;;9.90;99.90;;;;;;4838870;29;20233;-74
2021/03/11 06:52:30;;;;;;;2.28;2.08;;;10.00;99.90;;;;;;4861103;29;20235;-75
2021/03/11 06:55:09;;;;;;;4.25;2.92;;;10.00;99.90;;;;;;4861921;29;20221;-75
2021/03/11 06:57:38;;;;;;;2.97;2.10;;;10.10;99.90;;;;;;4861667;29;20230;-76
2021/03/11 07:00:14;;;;;;;2.92;2.00;;;10.20;99.90;;;;;;4860501;29;20227;-75
2021/03/11 07:02:49;;;;;;;3.22;2.28;;;10.20;99.90;;;;;;4860905;29;20313;-76
2021/03/11 07:05:16;;;;;;;3.20;2.75;;;10.20;99.90;;;;;;4859778;29;20211;-75
2021/03/11 07:07:42;;;;;;;3.08;2.70;;;10.20;99.90;;;;;;4861768;29;20279;-74
2021/03/11 07:10:26;;;;;;;3.13;2.30;;;10.30;99.90;;;;;;4856924;29;20221;-74
2021/03/11 07:12:55;;;;;;;4.82;2.45;;;10.30;99.90;;;;;;4849657;29;20219;-75
2021/03/11 07:15:24;;;;;;;3.42;2.63;;;10.40;99.90;;;;;;4860382;29;20215;-75
2021/03/11 07:17:52;;;;;;;3.35;2.65;;;10.30;99.90;;;;;;4859310;29;20582;-77
2021/03/11 07:20:27;;;;;;;3.95;2.40;;;10.40;99.90;;;;;;4859804;29;20658;-74
2021/03/11 07:23:10;;;;;;;3.45;2.30;;;10.30;99.90;;;;;;4844592;29;20232;-75
2021/03/11 07:25:38;;;;;;;4.63;2.67;;;10.30;99.90;;;;;;4838529;29;20257;-76
2021/03/11 07:28:25;;;;;;;4.15;2.42;;;10.40;99.90;;;;;;4857004;29;20765;-75
2021/03/11 07:31:00;;;;;;;5.80;3.00;;;10.50;99.90;;;;;;4843446;29;20562;-74
2021/03/11 07:33:30;;;;;;;3.90;2.40;;;10.50;99.90;;;;;;4823454;29;20238;-74
2021/03/11 07:36:02;;;;;;;3.83;2.50;;;10.50;99.90;;;;;;4860712;29;20196;-75
2021/03/11 07:38:31;;;;;;;6.32;2.80;;;10.60;99.90;;;;;;4860479;29;20306;-75
2021/03/11 07:40:59;;;;;;;3.03;2.17;;;10.60;99.90;;;;;;4841941;29;20215;-75
2021/03/11 07:43:28;;;;;;;3.20;2.20;;;10.60;99.90;;;;;;4858085;29;20226;-74
2021/03/11 07:46:05;;;;;;;6.53;2.45;;;10.60;99.90;;;;;;4843367;29;20298;-76
2021/03/11 07:48:33;;;;;;;2.85;2.65;;;10.60;99.90;;;;;;4858315;29;20246;-77
2021/03/11 07:51:01;;;;;;;2.83;2.20;;;10.60;99.90;;;;;;4861037;29;20195;-76
2021/03/11 07:53:28;;;;;;;3.70;1.92;;;10.70;99.90;;;;;;4859517;29;20362;-76
2021/03/11 07:55:59;;;;;;;4.32;2.67;;;10.70;99.90;;;;;;4861050;29;20203;-74
2021/03/11 07:58:40;;;;;;;3.70;2.90;;;10.70;99.90;;;;;;4850869;29;20223;-76
2021/03/11 08:01:15;;;;;;;4.78;3.30;;;10.80;99.90;;;;;;4858601;29;20207;-75
2021/03/11 08:03:53;;;;;;;2.60;1.70;;;10.90;99.90;;;;;;4846072;29;20268;-76
2021/03/11 08:06:26;;;;;;;4.38;2.97;;;11.00;99.90;;;;;;4861075;29;20220;-73
2021/03/11 08:08:53;;;;;;;3.00;2.47;;;11.00;99.90;;;;;;4844904;29;20255;-74
2021/03/11 08:11:40;;;;;;;3.30;1.92;;;11.00;99.90;;;;;;4826212;29;20552;-76
2021/03/11 08:14:21;;;;;;;4.72;2.10;;;11.00;99.90;;;;;;4826525;29;20308;-75
2021/03/11 08:16:48;;;;;;;4.35;2.20;;;11.10;99.90;;;;;;4831418;29;20297;-75
2021/03/11 08:19:36;;;;;;;4.20;1.93;;;11.20;99.90;;;;;;4842697;29;20199;-75
2021/03/11 08:22:03;;;;;;;2.00;1.80;;;11.20;99.90;;;;;;4841892;29;21075;-74
2021/03/11 08:24:40;;;;;;;2.67;1.67;;;11.20;99.90;;;;;;4842549;29;20452;-76
2021/03/11 08:27:30;;;;;;;3.17;2.20;;;11.30;99.90;;;;;;4825816;29;20495;-76
2021/03/11 08:30:00;;;;;;;3.20;2.37;;;11.40;99.90;;;;;;4818723;29;20483;-74
2021/03/11 08:32:46;;;;;;;4.27;2.07;;;11.40;99.90;;;;;;4838602;29;20901;-75
2021/03/11 08:35:28;;;;;;;3.30;1.70;;;11.40;99.90;;;;;;4844240;29;20470;-76
2021/03/11 08:38:00;;;;;;;3.33;2.10;;;11.40;99.90;;;;;;4860311;29;20473;-76
2021/03/11 08:40:40;;;;;;;2.60;1.50;;;11.40;99.90;;;;;;4859996;29;20447;-75
2021/03/11 08:43:06;;;;;;;2.13;1.93;;;11.50;99.90;;;;;;4843570;29;20479;-73
2021/03/11 08:45:36;;;;;;;3.23;1.53;;;11.50;99.90;;;;;;4844016;29;20547;-74
2021/03/11 08:48:17;;;;;;;3.73;2.33;;;11.40;99.90;;;;;;4859571;29;20859;-76
2021/03/11 08:50:46;;;;;;;2.10;1.37;;;11.50;99.90;;;;;;4860288;29;20426;-73
2021/03/11 08:53:12;;;;;;;1.77;1.60;;;11.50;99.90;;;;;;4843482;29;20470;-73
2021/03/11 08:55:40;;;;;;;1.47;1.17;;;11.50;99.90;;;;;;4857792;29;20464;-75
2021/03/11 08:58:28;;;;;;;2.50;1.63;;;11.40;99.90;;;;;;4843669;29;20458;-74
2021/03/11 09:01:02;;;;;;;2.40;1.30;;;11.60;99.90;;;;;;4842139;29;20517;-74
2021/03/11 09:03:47;;;;;;;1.77;1.37;;;11.60;99.90;;;;;;4858080;29;20471;-75
2021/03/11 09:06:16;;;;;;;1.53;1.23;;;11.50;99.90;;;;;;4859567;29;20455;-74
2021/03/11 09:08:49;;;;;;;4.40;1.40;;;11.60;99.90;;;;;;4859015;29;20428;-76
2021/03/11 09:11:21;;;;;;;1.57;0.90;;;11.70;99.90;;;;;;4856811;29;20872;-73
2021/03/11 09:13:52;;;;;;;3.37;1.60;;;11.90;99.90;;;;;;4860894;29;20460;-82
2021/03/11 09:16:26;;;;;;;6.53;1.83;;;11.90;99.90;;;;;;4855624;29;20456;-80
2021/03/11 09:18:57;;;;;;;6.57;2.00;;;11.60;99.90;;;;;;4825662;29;20444;-83
2021/03/11 09:21:36;;;;;;;6.93;2.10;;;11.10;99.90;;;;;;4809536;29;20561;-79
2021/03/11 09:24:04;;;;;;;5.07;1.92;;;10.70;99.90;;;;;;4829700;29;20215;-84
2021/03/11 09:26:33;;;;;;;8.73;2.72;;;10.50;99.90;;;;;;4859601;29;20561;-92
2021/03/11 09:29:04;;;;;;;4.63;2.30;;;10.40;99.90;;;;;;4859755;29;20187;-83
2021/03/11 09:31:31;;;;;;;6.13;1.77;;;10.30;99.90;;;;;;4855051;29;20219;-84
2021/03/11 09:34:02;;;;;;;16.85;3.03;;;10.30;99.90;;;;;;4859215;29;20211;-82
2021/03/11 09:36:31;;;;;;;7.10;2.63;;;10.20;99.90;;;;;;4843087;29;20247;-82
2021/03/11 09:39:04;;;;;;;6.22;2.10;;;10.40;99.90;;;;;;4843747;29;20279;-80
2021/03/11 09:41:32;;;;;;;7.10;2.10;;;10.70;99.90;;;;;;4859096;29;20707;-79
2021/03/11 09:44:04;;;;;;;5.97;1.98;;;10.90;99.90;;;;;;4859687;29;20208;-77
2021/03/11 09:46:30;;;;;;;8.47;2.37;;;11.00;99.90;;;;;;4858813;29;20230;-77
2021/03/11 09:48:58;;;;;;;7.83;2.00;;;11.20;99.90;;;;;;4860049;29;20920;-76
2021/03/11 09:51:32;;;;;;;14.48;3.00;;;11.20;99.90;;;;;;4858929;29;20615;-77
2021/03/11 09:54:04;;;;;;;9.57;2.87;;;11.10;99.90;;;;;;4843058;29;20224;-76
2021/03/11 09:56:37;;;;;;;7.80;2.70;;;11.30;99.90;;;;;;4832456;29;20471;-75
2021/03/11 09:59:08;;;;;;;3.73;2.23;;;11.50;99.90;;;;;;4841125;29;20863;-76
2021/03/11 10:01:37;;;;;;;8.10;3.13;;;11.60;99.90;;;;;;4847260;29;20475;-75
2021/03/11 10:04:16;;;;;;;7.43;2.60;;;11.70;99.90;;;;;;4843106;29;20508;-76
2021/03/11 10:06:50;;;;;;;5.27;1.90;;;11.60;99.90;;;;;;4842591;29;20894;-74
2021/03/11 10:09:16;;;;;;;12.33;2.90;;;11.70;99.90;;;;;;4858407;29;20516;-75
2021/03/11 10:11:45;;;;;;;5.07;1.90;;;12.00;99.90;;;;;;4844683;29;20465;-73
2021/03/11 10:14:13;;;;;;;5.20;3.40;;;12.00;99.90;;;;;;4844720;29;21027;-74
2021/03/11 10:16:45;;;;;;;9.10;3.03;;;12.10;99.90;;;;;;4827469;29;20533;-75
2021/03/11 10:19:16;;;;;;;5.73;2.10;;;12.10;99.90;;;;;;4828200;29;20480;-74
2021/03/11 10:21:55;;;;;;;4.10;2.70;;;12.40;99.90;;;;;;4833825;29;20491;-75
2021/03/11 10:24:49;;;;;;;7.40;3.20;;;12.40;99.90;;;;;;4860221;29;20544;-73
2021/03/11 10:27:23;;;;;;;8.63;2.87;;;12.70;99.90;;;;;;4858965;29;20482;-75
2021/03/11 10:30:07;;;;;;;5.60;3.37;;;12.90;99.90;;;;;;4846290;29;20451;-74
2021/03/11 10:32:35;;;;;;;11.10;2.40;;;13.10;99.90;;;;;;4840986;29;20480;-73
2021/03/11 10:35:04;;;;;;;9.73;2.47;;;13.10;99.90;;;;;;4861506;29;20506;-74
2021/03/11 10:37:33;;;;;;;9.10;2.80;;;13.20;97.90;;;;;;4861882;29;20460;-77
2021/03/11 10:40:06;;;;;;;5.70;3.20;;;13.00;96.90;;;;;;4858943;29;20432;-74
2021/03/11 10:42:44;;;;;;;6.67;3.43;;;13.00;96.30;;;;;;4828870;29;20487;-74
2021/03/11 10:45:20;;;;;;;5.93;2.20;;;12.90;96.00;;;;;;4862635;29;20479;-74
2021/03/11 10:47:57;;;;;;;7.03;2.57;;;12.90;95.40;;;;;;4860382;29;20483;-74
2021/03/11 10:50:25;;;;;;;9.43;2.90;;;13.00;95.30;;;;;;4861161;29;20444;-75
2021/03/11 10:52:55;;;;;;;6.87;2.43;;;13.00;96.30;;;;;;4860375;29;20476;-75
2021/03/11 10:55:33;;;;;;;4.70;2.37;;;13.10;94.40;;;;;;4856836;29;20563;-73
2021/03/11 10:58:01;;;;;;;4.83;2.10;;;13.10;93.30;;;;;;4830701;29;20472;-76
2021/03/11 11:00:37;;;;;;;13.00;4.80;;;13.10;91.70;;;;;;4880327;23;20490;-78
2021/03/11 11:03:05;;;;;;;6.00;2.30;;;13.20;91.60;;;;;;4846496;29;20570;-77
2021/03/11 11:05:33;;;;;;;4.23;1.93;;;13.20;91.80;;;;;;4862630;29;20887;-78
2021/03/11 11:08:01;;;;;;;7.43;2.23;;;13.20;91.00;;;;;;4864507;29;21007;-77
2021/03/11 11:10:33;;;;;;;12.07;2.53;;;13.20;91.30;;;;;;4878960;29;21010;-78
2021/03/11 11:13:03;;;;;;;7.87;2.07;;;13.30;91.20;;;;;;4872055;29;20467;-78
2021/03/11 11:15:31;;;;;;;5.70;2.07;;;13.30;88.90;;;;;;4874777;29;20469;-77
2021/03/11 11:17:58;;;;;;;6.60;2.00;;;13.20;89.20;;;;;;4876502;29;20498;-78
2021/03/11 11:20:27;;;;;;;9.27;2.00;;;13.10;86.50;;;;;;4880420;29;20529;-78
2021/03/11 11:22:53;;;;;;;9.83;2.03;;;13.20;87.40;;;;;;4878166;29;20882;-78
2021/03/11 11:25:19;;;;;;;11.60;2.70;;;13.20;86.40;;;;;;4879795;29;20469;-77
2021/03/11 11:27:46;;;;;;;8.70;3.23;;;13.30;83.70;;;;;;4878854;29;20562;-77
2021/03/11 11:30:14;;;;;;;5.07;2.17;;;13.30;86.60;;;;;;4879150;29;20435;-77
2021/03/11 11:32:42;;;;;;;6.87;2.80;;;13.30;80.70;;;;;;4877832;29;20529;-78
2021/03/11 11:35:09;;;;;;;7.57;2.60;;;13.30;81.30;;;;;;4863117;29;20833;-77
2021/03/11 11:37:36;;;;;;;7.17;1.90;;;13.10;85.70;;;;;;4879901;29;20464;-77
2021/03/11 11:40:03;;;;;;;8.67;3.17;;;13.10;83.00;;;;;;4878549;29;20898;-78
2021/03/11 11:42:30;;;;;;;6.43;2.00;;;12.90;84.20;;;;;;4862623;29;20464;-77
2021/03/11 11:44:57;;;;;;;13.50;3.20;;;12.90;83.40;;;;;;4880250;29;21036;-77
2021/03/11 11:47:23;;;;;;;14.03;3.80;;;13.00;84.00;;;;;;4878713;29;20509;-77
2021/03/11 11:49:50;;;;;;;18.63;3.87;;;13.00;86.10;;;;;;4880215;29;20432;-78
2021/03/11 11:52:16;;;;;;;5.80;2.73;;;13.20;81.20;;;;;;4879280;29;20471;-77
2021/03/11 11:54:42;;;;;;;11.20;3.10;;;13.20;82.60;;;;;;4879487;29;20469;-77
2021/03/11 11:57:09;;;;;;;8.27;3.03;;;13.10;79.90;;;;;;4879407;29;20550;-77
2021/03/11 11:59:36;;;;;;;9.03;2.90;;;13.10;79.00;;;;;;4868657;29;20866;-77
2021/03/11 12:02:12;;;;;;;10.40;3.67;;;13.10;81.80;;;;;;4866662;29;20468;-77
2021/03/11 12:04:39;;;;;;;7.83;2.50;;;13.10;78.30;;;;;;4875842;29;21009;-77
2021/03/11 12:07:06;;;;;;;13.13;3.60;;;13.10;78.50;;;;;;4869607;29;20502;-77
2021/03/11 12:09:32;;;;;;;11.43;3.27;;;13.20;82.80;;;;;;4878366;29;20439;-77
2021/03/11 12:12:01;;;;;;;9.50;3.10;;;13.10;81.30;;;;;;4870330;29;20495;-77
2021/03/11 12:14:28;;;;;;;11.10;4.23;;;13.20;77.90;;;;;;4879853;29;20477;-77
2021/03/11 12:16:54;;;;;;;8.37;2.27;;;13.20;80.20;;;;;;4878531;29;20491;-78
2021/03/11 12:19:21;;;;;;;9.83;3.00;;;13.20;82.20;;;;;;4879793;29;20438;-77
2021/03/11 12:21:48;;;;;;;14.13;3.60;;;12.80;93.30;;;;;;4877895;29;20900;-77
2021/03/11 12:24:14;;;;;;;12.20;2.90;;;12.50;97.50;;;;;;4878886;29;20530;-77
2021/03/11 12:26:41;;;;;;;5.10;2.30;;;12.40;97.40;;;;;;4866686;29;20491;-77
2021/03/11 12:29:07;;;;;;;10.17;2.20;;;12.40;99.10;;;;;;4878050;29;21009;-78
2021/03/11 12:31:33;;;;;;;7.40;2.50;;;12.40;97.90;;;;;;4861388;29;21075;-77
2021/03/11 12:34:00;;;;;;;4.87;2.53;;;12.50;96.60;;;;;;4878681;29;20457;-78
2021/03/11 12:36:27;;;;;;;9.97;3.60;;;12.60;96.70;;;;;;4878527;29;20490;-77
2021/03/11 12:38:54;;;;;;;7.80;2.97;;;12.60;96.40;;;;;;4876880;29;20459;-77
2021/03/11 12:41:21;;;;;;;6.43;2.53;;;12.70;94.40;;;;;;4869251;29;20481;-77
2021/03/11 12:43:48;;;;;;;8.10;2.60;;;12.80;93.80;;;;;;4879256;29;20431;-78
2021/03/11 12:46:15;;;;;;;6.33;2.93;;;12.90;94.40;;;;;;4878135;29;20444;-77
2021/03/11 12:48:41;;;;;;;6.53;2.90;;;13.00;93.10;;;;;;4862013;29;20515;-78
2021/03/11 12:51:08;;;;;;;8.90;2.77;;;13.00;89.50;;;;;;4878944;29;20787;-77
2021/03/11 12:53:34;;;;;;;9.40;3.00;;;13.00;90.00;;;;;;4878285;29;21039;-77
2021/03/11 12:56:01;;;;;;;4.60;2.00;;;13.00;90.20;;;;;;4878157;29;20540;-77
2021/03/11 12:58:27;;;;;;;6.33;2.60;;;13.10;89.30;;;;;;4878325;29;20473;-77
2021/03/11 13:00:54;;;;;;;6.10;2.40;;;13.20;88.90;;;;;;4878264;29;20455;-78
2021/03/11 13:03:20;;;;;;;3.00;1.40;;;13.20;86.40;;;;;;4862518;29;20577;-77
2021/03/11 13:05:47;;;;;;;3.47;1.70;;;13.30;86.50;;;;;;4877778;29;20515;-77